Tiempo atmosférico en la estación meteorológica de Valencia De Don Juan, León (788 m.)



Fecha
DESCASC
Temp. máxima en grados centígrados (hora)
DESCASC
Temp. mínima en grados centígrados (hora)
DESCASC
Temp. media en grados centígrados
DESCASC
Racha de viento máxima en m/sg (hora)
DESCASC
Velocidad máxima media en intervalos de 10 minutos(hora)
DESCASC
Precipitaciones diarias en mm
DESCASC
Precipitaciones de 00:00 a 06:00 en mm
DESCASC
Precipitaciones de 06:00 a 12:00 en mm
DESCASC
Precipitaciones de 12:00 a 18:00 en mm
DESCASC
Precipitaciones de 18:00 a 24:00 en mm
DESCASC
29-10-2020 14.4 (15:40) 1.5 (07:50) 7.9 5.83 (15:20) 3.61 (23:30) 0 0 0 0 0
28-10-2020 16.6 (14:30) 7.7 (23:59) 12.2 9.17 (01:40) 5.56 (01:40) 0 0 0 0 0
27-10-2020 13.9 (13:40) 6.3 (00:00) 10.1 10 (15:50) 6.94 (15:50) 0.2 0 0.2 0 0
26-10-2020 11.6 (14:50) 2.6 (00:00) 7.1 12.22 (14:40) 8.33 (14:50) 0 0 0 0 0
25-10-2020 13.5 (15:30) 4.4 (00:00) 9 16.11 (07:50) 10.83 (02:40) 5.2 0.6 4.6 0 0
24-10-2020 13.2 (15:50) 4.7 (00:00) 8.9 13.61 (23:40) 9.72 (16:30) 0 0 0 0 0
23-10-2020 -- (--) -- (--) -- -- (--) -- (--) -- -- -- -- 0
22-10-2020 -- (--) -- (--) -- -- (--) -- (--) -- -- -- -- --
21-10-2020 -- (--) -- (--) -- -- (--) -- (--) -- 5.2 0.2 -- --
20-10-2020 13.5 (20:50) 11.5 (00:00) 12.5 17.5 (23:50) 13.33 (19:40) 60.2 6 3.8 22 28.4
19-10-2020 21.7 (14:50) 4.7 (00:00) 13.2 16.67 (17:40) 10.28 (17:40) 7.6 0 0 0 7.6
18-10-2020 20.1 (16:40) 2.4 (00:00) 11.3 6.11 (23:10) 5.28 (22:50) 0 0 0 0 0
17-10-2020 17.7 (18:20) 0.9 (00:00) 9.3 5.83 (14:50) 4.17 (21:00) 0 0 0 0 0
16-10-2020 14.4 (17:50) -1.9 (-00:0) 6.2 6.39 (16:50) 4.17 (21:30) 0 0 0 0 0
15-10-2020 14.6 (16:30) 3.4 (00:00) 9 10.28 (18:10) 6.67 (13:50) 0 0 0 0 0
14-10-2020 15.8 (14:50) 4.3 (00:00) 10.1 10.28 (16:20) 7.22 (18:10) 0 0 0 0 0
13-10-2020 19.1 (16:40) 7.3 (00:00) 13.2 11.39 (18:40) 8.06 (18:50) 0 0 0 0 0
12-10-2020 19.7 (16:30) 2.7 (00:00) 11.2 7.78 (16:50) 5.28 (17:20) 0 0 0 0 0
11-10-2020 15.7 (15:20) 2.2 (00:00) 8.9 13.61 (18:40) 9.44 (18:40) 0 0 0 0 0
10-10-2020 19.6 (15:20) 8.4 (00:00) 14 10.56 (19:10) 7.22 (19:10) 0 0 0 0 0
09-10-2020 24.2 (17:00) 6.3 (00:00) 15.3 6.67 (22:20) 4.72 (22:20) 0 0 0 0 0
08-10-2020 23.5 (17:40) 7.7 (00:00) 15.6 9.44 (01:40) 6.67 (01:00) 0 0 0 0 0
07-10-2020 24 (17:10) 11.2 (00:00) 17.6 6.11 (06:50) 3.61 (06:50) 0 0 0 0 0
06-10-2020 22.2 (16:30) 10.7 (00:00) 16.5 11.39 (14:00) 8.06 (13:50) 0 0 0 0 0
05-10-2020 18.4 (16:20) 6.2 (00:00) 12.3 12.22 (17:30) 8.89 (17:30) 0 0 0 0 0
04-10-2020 15.1 (16:00) 7.2 (00:00) 11.2 17.22 (13:20) 11.67 (14:10) 0.2 0 0.2 0 0
03-10-2020 14 (16:50) 4.8 (00:00) 9.4 15.83 (17:00) 10 (17:00) 0 0 0 0 0
02-10-2020 12.6 (05:40) 6.9 (00:00) 9.8 22.22 (10:20) 14.44 (10:20) 2.4 2 0.4 0 0
01-10-2020 18.7 (16:10) 9.8 (00:00) 14.3 17.5 (23:50) 11.67 (23:50) 0 0 0 0 0

Gráficas

Temp. máximas Temp. mínimas Temp. medias Precipitaciones Rachas de viento máximas Velocidades máximas media en intervalos de 10 minutos

Datos horarios

Fecha y hora oficial Temperatura (ºC) Velocidad del viento (km/h) Dirección del viento Racha (km/h) Dirección de racha Precipitación (mm) Presión (hPa) Tendencia (hPa) Humedad (%)
2020-10-30 23:00:00 8 5 Nordeste 8 Noroeste 0 -- -- 90
2020-10-30 22:00:00 11.4 5 Sudeste 9 Sudeste 0 -- -- 85
2020-10-30 21:00:00 11.9 10 Este 14 Sudeste 0 -- -- 83
2020-10-30 20:00:00 12.6 12 Sudeste 13 Sudeste 0 -- -- 79
2020-10-30 19:00:00 13.1 8 Sudeste 10 Sudeste 0 -- -- 78
2020-10-30 18:00:00 16 5 Sur 14 Sudoeste 0 -- -- 66
2020-10-30 17:00:00 16.9 10 Sudoeste 16 Sudoeste 0 -- -- 62
2020-10-30 16:00:00 17 10 Sudoeste 19 Sudoeste 0 -- -- 62
2020-10-30 15:00:00 16.1 10 Sudoeste 21 Sudoeste 0 -- -- 67
2020-10-30 14:00:00 14.8 6 Sudoeste 17 Sudoeste 0 -- -- 68
2020-10-30 13:00:00 13.8 3 Norte 10 Norte 0 -- -- 72
2020-10-30 12:00:00 11.1 4 Nordeste 10 Norte 0 -- -- 83
2020-10-30 11:00:00 8.9 5 Noroeste 8 Norte 0 -- -- 92
2020-10-30 10:00:00 6.9 2 Norte 5 Nordeste 0 -- -- 94
2020-10-30 09:00:00 5.2 0 Calma 6 Sudoeste 0 -- -- 94
2020-10-30 08:00:00 3.7 5 Sudoeste 12 Sur 0 -- -- 93
2020-10-30 07:00:00 5.3 10 Nordeste 16 Nordeste 0 -- -- 94
2020-10-30 06:00:00 4.7 8 Nordeste 11 Nordeste 0 -- -- 93
2020-10-30 05:00:00 5 3 Nordeste 6 Nordeste 0 -- -- 93
2020-10-30 04:00:00 5 4 Norte 6 Nordeste 0 -- -- 93
2020-10-30 03:00:00 4.1 4 Nordeste 9 Norte 0 -- -- 93
2020-10-30 02:00:00 3.3 3 Norte 8 Norte 0 -- -- 91
2020-10-30 01:00:00 4.1 0 Calma 5 Nordeste 0 -- -- 90
2020-10-30 00:00:00 5.5 5 Norte 15 Este 0 -- -- 89
2020-10-29 23:00:00 6.5 5 Nordeste 8 Nordeste 0 -- -- 85
2020-10-29 22:00:00 8.8 0 Calma 6 Sur 0 -- -- 81
2020-10-29 21:00:00 8.5 6 Sur 9 Sur 0 -- -- 83
2020-10-29 20:00:00 9 8 Sur 12 Sur 0 -- -- 81
2020-10-29 19:00:00 10.4 10 Sur 12 Sur 0 -- -- 76
2020-10-29 18:00:00 13 6 Sudoeste 13 Sur 0 -- -- 66
2020-10-29 17:00:00 14 9 Sudoeste 15 Sudoeste 0 -- -- 62
2020-10-29 16:00:00 14.2 9 Sudoeste 21 Sur 0 -- -- 61
2020-10-29 15:00:00 14.2 8 Sur 18 Sudoeste 0 -- -- 63
2020-10-29 14:00:00 13.5 6 Oeste 18 Sudoeste 0 -- -- 67
2020-10-29 13:00:00 12 7 Oeste 15 Sudoeste 0 -- -- 70
2020-10-29 12:00:00 11.4 5 Sudoeste 12 Sudoeste 0 -- -- 76
2020-10-29 11:00:00 8 0 Calma 6 Norte 0 -- -- 94
2020-10-29 10:00:00 4.9 5 Norte 8 Norte 0 -- -- 95
2020-10-29 09:00:00 2.8 2 Norte 6 Nordeste 0 -- -- 94
2020-10-29 08:00:00 1.5 9 Norte 13 Norte 0 -- -- 93
2020-10-29 07:00:00 2.1 7 Nordeste 9 Este 0 -- -- 92
2020-10-29 06:00:00 2.5 6 Nordeste 8 Nordeste 0 -- -- 92
2020-10-29 05:00:00 3.3 5 Nordeste 7 Nordeste 0 -- -- 91
2020-10-29 04:00:00 3.7 5 Norte 6 Norte 0 -- -- 90
2020-10-29 03:00:00 4.6 0 Calma 6 Noroeste 0 -- -- 87
2020-10-29 02:00:00 6.6 0 Calma 7 Noroeste 0 -- -- 81
2020-10-29 01:00:00 7.9 0 Calma 3 Noroeste 0 -- -- 80
2020-10-29 00:00:00 7.7 0 Calma 4 Sur 0 -- -- 80
2020-10-28 23:00:00 8.2 3 Sur 6 Noroeste 0 -- -- 79
2020-10-28 22:00:00 9 5 Oeste 11 Sudoeste 0 -- -- 76
2020-10-28 21:00:00 9.4 8 Sudoeste 10 Sur 0 -- -- 74
2020-10-28 20:00:00 10.2 6 Noroeste 13 Noroeste 0 -- -- 70
2020-10-28 19:00:00 11.2 7 Noroeste 19 Noroeste 0 -- -- 67
2020-10-28 18:00:00 13.7 11 Noroeste 17 Noroeste 0 -- -- 59
2020-10-28 17:00:00 15.4 9 Noroeste 25 Norte 0 -- -- 56
2020-10-28 16:00:00 15.5 15 Norte 22 Norte 0 -- -- 57
2020-10-28 15:00:00 15.8 8 Noroeste 22 Oeste 0 -- -- 58
2020-10-28 14:00:00 15.6 9 Sudoeste 20 Sudoeste 0 -- -- 57
2020-10-28 13:00:00 14.4 3 Sur 12 Sudoeste 0 -- -- 64
2020-10-28 12:00:00 13.3 4 Oeste 12 Norte 0 -- -- 68
2020-10-28 11:00:00 12.2 4 Norte 10 Sudoeste 0 -- -- 79
2020-10-28 10:00:00 11.2 0 Calma 5 Sudeste 0 -- -- 87
2020-10-28 09:00:00 10.2 6 Sur 9 Sur 0 -- -- 93
2020-10-28 08:00:00 10.3 0 Calma 7 Oeste 0 -- -- 92
2020-10-28 07:00:00 10.7 5 Oeste 11 Sudoeste 0 -- -- 92
2020-10-28 06:00:00 10.7 5 Oeste 13 Sudoeste 0 -- -- 92
2020-10-28 05:00:00 10.7 11 Sudoeste 15 Sudoeste 0 -- -- 92
2020-10-28 04:00:00 10.7 11 Sudoeste 20 Sudoeste 0 -- -- 92
2020-10-28 03:00:00 10.5 13 Sudoeste 25 Sudoeste 0 -- -- 92
2020-10-28 02:00:00 10.4 19 Sudoeste 33 Sudoeste 0 -- -- 91
2020-10-28 01:00:00 10.6 15 Sudoeste 25 Sudoeste 0 -- -- 90
2020-10-28 00:00:00 10.6 18 Sudoeste 29 Sudoeste 0 -- -- 89
2020-10-27 23:00:00 10.6 19 Sudoeste 30 Sudoeste 0 -- -- 89
2020-10-27 22:00:00 10.5 21 Sudoeste 36 Sudoeste 0 -- -- 89
2020-10-27 21:00:00 10.4 19 Sudoeste 31 Sudoeste 0 -- -- 88
2020-10-27 20:00:00 10.5 18 Sudoeste 31 Sudoeste 0 -- -- 86
2020-10-27 19:00:00 10.7 21 Sudoeste 35 Sudoeste 0 -- -- 84
2020-10-27 18:00:00 10.9 22 Sudoeste 36 Sudoeste 0 -- -- 83
2020-10-27 17:00:00 10.9 24 Sudoeste 33 Sudoeste 0 -- -- 84
2020-10-27 16:00:00 11 20 Sudoeste 36 Sudoeste 0 -- -- 84
2020-10-27 15:00:00 13 23 Sudoeste 33 Sudoeste 0 -- -- 70
2020-10-27 14:00:00 13.3 22 Sudoeste 34 Sudoeste 0 -- -- 68
2020-10-27 13:00:00 12 23 Sudoeste 33 Sudoeste 0 -- -- 71
2020-10-27 12:00:00 11.4 19 Sudoeste 30 Sudoeste 0 -- -- 72
2020-10-27 11:00:00 9.6 14 Sudoeste 22 Sudoeste 0 -- -- 82
2020-10-27 10:00:00 7.9 14 Sudoeste 22 Sudoeste 0 -- -- 88
2020-10-27 09:00:00 6.9 12 Sudoeste 20 Sur 0 -- -- 91
2020-10-27 08:00:00 6.5 15 Sur 20 Sur 0.2 -- -- 90
2020-10-27 07:00:00 6.6 13 Sur 22 Sudoeste 0 -- -- 88
2020-10-27 06:00:00 6.6 13 Sudoeste 20 Sudoeste 0 -- -- 87
2020-10-27 05:00:00 6.4 13 Sudoeste 18 Sudoeste 0 -- -- 88
2020-10-27 04:00:00 6.5 14 Sudoeste 21 Sudoeste 0 -- -- 86
2020-10-27 03:00:00 6.4 14 Sudoeste 22 Sudoeste -- -- -- 86
2020-10-27 02:00:00 6.5 12 Sudoeste 17 Sudoeste 0 -- -- 84
2020-10-27 01:00:00 6.5 7 Sur 19 Sudoeste 0 -- -- 81
2020-10-27 00:00:00 6.7 13 Sudoeste 17 Sudoeste 0 -- -- 78
2020-10-26 23:00:00 6.6 9 Sudoeste 15 Sudoeste 0 -- -- 79
2020-10-26 22:00:00 6.5 6 Sur 17 Oeste 0 -- -- 79
2020-10-26 21:00:00 7.3 7 Oeste 27 Oeste 0 -- -- 72
2020-10-26 20:00:00 7.4 16 Oeste 23 Oeste 0 -- -- 71
2020-10-26 19:00:00 7.8 14 Oeste 29 Oeste 0 -- -- 67
2020-10-26 18:00:00 9.3 20 Oeste 32 Noroeste 0 -- -- 60
2020-10-26 17:00:00 10.3 19 Noroeste 39 Oeste 0 -- -- 54
2020-10-26 16:00:00 11.1 29 Oeste 41 Noroeste 0 -- -- 49
2020-10-26 15:00:00 11.5 29 Noroeste 44 Oeste 0 -- -- 52
2020-10-26 14:00:00 10.6 20 Oeste 36 Oeste 0 -- -- 56
2020-10-26 13:00:00 10 22 Oeste 36 Oeste 0 -- -- 58
2020-10-26 12:00:00 9.6 18 Noroeste 36 Oeste 0 -- -- 62
2020-10-26 11:00:00 8.2 19 Oeste 31 Oeste 0 -- -- 70
2020-10-26 10:00:00 6.3 13 Oeste 21 Oeste 0 -- -- 78
2020-10-26 09:00:00 4.1 9 Oeste 18 Oeste 0 -- -- 85
2020-10-26 08:00:00 3.1 5 Oeste 18 Oeste 0 -- -- 85
2020-10-26 07:00:00 3 11 Oeste 19 Oeste 0 -- -- 87
2020-10-26 06:00:00 2.6 12 Oeste 18 Oeste 0 -- -- 89
2020-10-26 05:00:00 2.9 8 Sudoeste 13 Oeste 0 -- -- 89
2020-10-26 04:00:00 3.5 11 Oeste 15 Oeste 0 -- -- 89
2020-10-26 03:00:00 3.6 10 Sudoeste 16 Oeste 0 -- -- 87
2020-10-26 02:00:00 4.2 8 Sudoeste 14 Sur 0 -- -- 85
2020-10-26 01:00:00 4.3 9 Sudoeste 14 Sudoeste 0 -- -- 84
2020-10-26 00:00:00 4.4 9 Sudoeste 14 Sudoeste 0 -- -- 84
2020-10-25 23:00:00 4.8 6 Oeste 12 Oeste 0 -- -- 81
2020-10-25 22:00:00 5.1 6 Oeste 17 Oeste 0 -- -- 80
2020-10-25 21:00:00 5.8 11 Oeste 23 Noroeste 0 -- -- 77
2020-10-25 20:00:00 6.7 12 Noroeste 34 Oeste 0 -- -- 73
2020-10-25 19:00:00 7.5 9 Oeste 26 Oeste 0 -- -- 71
2020-10-25 18:00:00 8.3 17 Oeste 38 Oeste 0 -- -- 68
2020-10-25 17:00:00 8.7 24 Noroeste 55 Oeste 0 -- -- 71
2020-10-25 16:00:00 12 32 Oeste 50 Sudoeste 0 -- -- 70
2020-10-25 15:00:00 12.2 27 Sudoeste 39 Sudoeste 0 -- -- 74
2020-10-25 14:00:00 11.8 26 Sudoeste 49 Sudoeste 0 -- -- 83
2020-10-25 13:00:00 11.7 31 Sudoeste 43 Sudoeste 0 -- -- 86
2020-10-25 12:00:00 10.7 27 Sudoeste 41 Sudoeste 0.4 -- -- 91
2020-10-25 11:00:00 11.3 20 Sudoeste 36 Sudoeste 0.8 -- -- 93
2020-10-25 10:00:00 10.7 31 Sudoeste 50 Sudoeste 1.8 -- -- 93
2020-10-25 09:00:00 10.3 30 Sudoeste 54 Sudoeste 1.4 -- -- 92
2020-10-25 08:00:00 10.7 35 Sudoeste 58 Sudoeste 0 -- -- 88
2020-10-25 07:00:00 10.6 35 Sudoeste 48 Sudoeste 0.2 -- -- 87
2020-10-25 06:00:00 10.4 25 Sudoeste 50 Sudoeste 0 -- -- 90
2020-10-25 05:00:00 10.5 26 Sudoeste 48 Sudoeste 0 -- -- 90
2020-10-25 04:00:00 10.5 33 Sudoeste 50 Sudoeste 0 -- -- 90
2020-10-25 03:00:00 10.4 35 Sudoeste 51 Sudoeste 0.2 -- -- 92
2020-10-25 02:00:00 10.4 31 Sudoeste 58 Sudoeste 0.2 -- -- 91
2020-10-25 01:00:00 10.8 27 Sudoeste 48 Sudoeste 0 -- -- 88
2020-10-25 00:00:00 11.2 31 Sudoeste 49 Sudoeste 0 -- -- 84
2020-10-24 23:00:00 11.1 22 Sur 45 Sudoeste 0 -- -- 85
2020-10-24 22:00:00 11.2 25 Sudoeste 41 Sur 0 -- -- 86
2020-10-24 21:00:00 11.5 20 Sur 33 Sur 0 -- -- 82
2020-10-24 20:00:00 11.7 20 Sudoeste 36 Sudoeste 0 -- -- 79
2020-10-24 19:00:00 12 30 Sudoeste 42 Sudoeste 0 -- -- 76
2020-10-24 18:00:00 12.2 24 Sudoeste 42 Sudoeste 0 -- -- 75
2020-10-24 17:00:00 12.5 27 Sudoeste 48 Sudoeste 0 -- -- 76
2020-10-24 16:00:00 13.2 25 Sudoeste 48 Sudoeste 0 -- -- 73
2020-10-24 15:00:00 12.3 27 Sudoeste 48 Sudoeste 0 -- -- 75
2020-10-24 14:00:00 11.7 24 Sudoeste 36 Sudoeste 0 -- -- 78
2020-10-24 13:00:00 11 20 Sudoeste 32 Sudoeste 0 -- -- 82
2020-10-24 12:00:00 8.4 14 Sur 22 Sudoeste 0 -- -- 91
2020-10-24 11:00:00 7.3 11 Sur 17 Sur 0 -- -- 93
2020-10-24 10:00:00 5.9 12 Sur 17 Sur 0 -- -- 94
2020-10-24 09:00:00 4.8 13 Sur 18 Sur 0 -- -- 93
2020-10-24 08:00:00 4.9 14 Sur 21 Sur 0 -- -- 93
2020-10-24 07:00:00 5 13 Sur 16 Sur 0 -- -- 92
2020-10-24 06:00:00 5.3 10 Sur 15 Sur 0 -- -- 91
2020-10-24 05:00:00 5.6 11 Sur 13 Sur 0 -- -- 90
2020-10-24 04:00:00 6.1 9 Sur 14 Sudoeste 0 -- -- 90
2020-10-24 03:00:00 6.4 11 Sur 14 Sur 0 -- -- 89
2020-10-24 02:00:00 6.8 10 Sur 13 Sur 0 -- -- 86
2020-10-24 01:00:00 7.1 9 Sur 12 Sur 0 -- -- 86
2020-10-24 00:00:00 7.7 10 Sur 13 Sur 0 -- -- 84
2020-10-23 23:00:00 8.6 8 Sudoeste 14 Sudoeste 0 -- -- 77
2020-10-23 22:00:00 9.1 7 Sudoeste 14 Oeste 0 -- -- 76
2020-10-23 21:00:00 10.2 10 Oeste 16 Noroeste 0 -- -- 71
2020-10-23 20:00:00 11 11 Noroeste 15 Noroeste 0 -- -- 64
2020-10-23 19:00:00 12.7 6 Oeste 14 Sudoeste 0 -- -- 67
2020-10-23 18:00:00 13 11 Sudoeste 26 Sudoeste 0 -- -- 65
2020-10-23 17:00:00 13.3 14 Sudoeste 22 Sudoeste 0 -- -- 66
2020-10-23 16:00:00 13.2 12 Oeste -- -- -- -- -- 62
2020-10-23 15:00:00 -- -- -- -- -- -- -- -- --
2020-10-23 14:00:00 -- -- -- -- -- -- -- -- --
2020-10-23 13:00:00 -- -- -- -- -- -- -- -- --
2020-10-23 12:00:00 -- -- -- -- -- -- -- -- --
2020-10-23 11:00:00 -- -- -- -- -- -- -- -- --
2020-10-23 10:00:00 -- -- -- -- -- -- -- -- --
2020-10-23 09:00:00 -- -- -- -- -- -- -- -- --
2020-10-23 08:00:00 -- -- -- -- -- -- -- -- --
2020-10-23 07:00:00 -- -- -- -- -- -- -- -- --
2020-10-23 06:00:00 -- -- -- -- -- -- -- -- --
2020-10-23 05:00:00 -- -- -- -- -- -- -- -- --
2020-10-23 04:00:00 -- -- -- -- -- -- -- -- --
2020-10-23 03:00:00 -- -- -- -- -- -- -- -- --
2020-10-23 02:00:00 -- -- -- -- -- -- -- -- --
2020-10-23 01:00:00 -- -- -- -- -- -- -- -- --
2020-10-23 00:00:00 -- -- -- -- -- -- -- -- --
2020-10-22 23:00:00 -- -- -- -- -- -- -- -- --
2020-10-22 22:00:00 -- -- -- -- -- -- -- -- --
2020-10-22 21:00:00 -- -- -- -- -- -- -- -- --
2020-10-22 20:00:00 -- -- -- -- -- -- -- -- --
2020-10-22 19:00:00 -- -- -- -- -- -- -- -- --
2020-10-22 18:00:00 -- -- -- -- -- -- -- -- --
2020-10-22 17:00:00 -- -- -- -- -- -- -- -- --
2020-10-22 16:00:00 -- -- -- -- -- -- -- -- --
2020-10-22 15:00:00 -- -- -- -- -- -- -- -- --
2020-10-22 14:00:00 -- -- -- -- -- -- -- -- --
2020-10-22 13:00:00 -- -- -- -- -- -- -- -- --
2020-10-22 12:00:00 -- -- -- -- -- -- -- -- --
2020-10-22 11:00:00 -- -- -- -- -- -- -- -- --
2020-10-22 10:00:00 -- -- -- -- -- -- -- -- --
2020-10-22 09:00:00 -- -- -- -- -- -- -- -- --
2020-10-22 08:00:00 -- -- -- -- -- -- -- -- --
2020-10-22 07:00:00 -- -- -- -- -- -- -- -- --
2020-10-22 06:00:00 -- -- -- -- -- -- -- -- --
2020-10-22 05:00:00 -- -- -- -- -- -- -- -- --
2020-10-22 04:00:00 -- -- -- -- -- -- -- -- --
2020-10-22 03:00:00 -- -- -- -- -- -- -- -- --
2020-10-22 02:00:00 -- -- -- -- -- -- -- -- --
2020-10-22 01:00:00 -- -- -- -- -- -- -- -- --
2020-10-22 00:00:00 -- -- -- -- -- -- -- -- --
2020-10-21 23:00:00 -- -- -- -- -- -- -- -- --
2020-10-21 22:00:00 -- -- -- -- -- -- -- -- --
2020-10-21 21:00:00 -- -- -- -- -- -- -- -- --
2020-10-21 20:00:00 -- -- -- -- -- -- -- -- --
2020-10-21 19:00:00 -- -- -- -- -- -- -- -- --
2020-10-21 18:00:00 -- -- -- -- -- -- -- -- --
2020-10-21 17:00:00 -- -- -- -- -- -- -- -- --
2020-10-21 16:00:00 -- -- -- -- -- -- -- -- --
2020-10-21 15:00:00 -- -- -- -- -- -- -- -- --
2020-10-21 14:00:00 14.1 23 Sudoeste 36 Sudoeste 0 -- -- 74
2020-10-21 13:00:00 13.3 24 Sudoeste 46 Sur 0 -- -- 79
2020-10-21 12:00:00 12.4 22 Sudoeste 41 Sudoeste 0 -- -- 87
2020-10-21 11:00:00 11.7 23 Sudoeste 33 Sur 0 -- -- 93
2020-10-21 10:00:00 11.1 18 Sur 29 Sur 0 -- -- 94
2020-10-21 09:00:00 10.7 18 Sur 36 Sur 0 -- -- 94
2020-10-21 08:00:00 10.7 23 Sur 37 Sur 0 -- -- 93
2020-10-21 07:00:00 10.8 22 Sur 38 Sudoeste 0.2 -- -- 93
2020-10-21 06:00:00 10.9 23 Sur 39 Sur 0 -- -- 93
2020-10-21 05:00:00 11.3 24 Sudoeste 46 Sur 0.2 -- -- 93
2020-10-21 04:00:00 11.5 29 Sudoeste 48 Sur 0 -- -- 93
2020-10-21 03:00:00 11.6 31 Sudoeste 48 Sur 1.8 -- -- 93
2020-10-21 02:00:00 11.6 19 Sur 27 Sudoeste 1.8 -- -- 93
2020-10-21 01:00:00 12 14 Sudoeste 56 Sudoeste 1.4 -- -- 92
2020-10-21 00:00:00 13.3 39 Sudoeste 63 Sur 3.2 -- -- 94
2020-10-20 23:00:00 13.1 31 Sur 45 Sudeste 8.6 -- -- 94
2020-10-20 22:00:00 13.4 27 Sur 47 Sudoeste 6.4 -- -- 93
2020-10-20 21:00:00 13.5 35 Sur 61 Sur 2.4 -- -- 91
2020-10-20 20:00:00 13.3 44 Sudeste 62 Sudeste 3.6 -- -- 91
2020-10-20 19:00:00 13.2 40 Sur 58 Sudeste 4.2 -- -- 92
2020-10-20 18:00:00 12.8 16 Sudeste 30 Sudeste 11 -- -- 93
2020-10-20 17:00:00 12.6 20 Sudeste 37 Sudeste 4.8 -- -- 92
2020-10-20 16:00:00 12.7 27 Sudeste 36 Sudeste 1.4 -- -- 92
2020-10-20 15:00:00 12.5 13 Sur 21 Sudoeste 2.6 -- -- 91
2020-10-20 14:00:00 12.7 18 Sur 37 Sur 1.4 -- -- 89
2020-10-20 13:00:00 13.2 22 Sur 32 Sur 0.8 -- -- 92
2020-10-20 12:00:00 12.8 17 Sur 31 Sur 0.8 -- -- 93
2020-10-20 11:00:00 12.3 18 Sur 28 Sudeste 0.4 -- -- 93
2020-10-20 10:00:00 11.6 22 Sudeste 32 Sudeste 0.6 -- -- 93
2020-10-20 09:00:00 11.8 19 Sudeste 29 Sudeste 0.2 -- -- 92
2020-10-20 08:00:00 11.7 19 Sudeste 28 Sur 1.2 -- -- 92
2020-10-20 07:00:00 11.6 19 Sur 29 Sudeste 0.6 -- -- 92
2020-10-20 06:00:00 11.6 20 Sur 28 Sudeste 0 -- -- 91
2020-10-20 05:00:00 11.7 18 Sur 29 Sudeste 0 -- -- 91
2020-10-20 04:00:00 11.6 15 Sudeste 23 Sudeste 0.2 -- -- 91
2020-10-20 03:00:00 11.6 12 Sur 18 Sur 1.6 -- -- 90
2020-10-20 02:00:00 11.6 7 Sudeste 12 Sudeste 2.6 -- -- 90
2020-10-20 01:00:00 11.5 6 Este 10 Nordeste 1.6 -- -- 89
2020-10-20 00:00:00 11.7 2 Sur 11 Sudoeste 3.8 -- -- 86
2020-10-19 23:00:00 12.3 8 Sudoeste 28 Sudoeste 3 -- -- 81
2020-10-19 22:00:00 13.4 5 Sudoeste 27 Sudoeste 0.2 -- -- 73
2020-10-19 21:00:00 14.1 14 Sudoeste 21 Sudoeste 0.6 -- -- 66
2020-10-19 20:00:00 16.1 19 Sudoeste 48 Sudoeste 0 -- -- 49
2020-10-19 19:00:00 17.4 31 Sudoeste 51 Sudoeste 0 -- -- 41
2020-10-19 18:00:00 19.4 33 Sudoeste 60 Sudoeste 0 -- -- 32
2020-10-19 17:00:00 20.5 27 Sudoeste 41 Sudoeste 0 -- -- 28
2020-10-19 16:00:00 20.8 19 Sudoeste 36 Sudoeste 0 -- -- 29
2020-10-19 15:00:00 21.3 30 Sudoeste 46 Sur 0 -- -- 29
2020-10-19 14:00:00 20.7 24 Sudoeste 38 Sudoeste 0 -- -- 29
2020-10-19 13:00:00 18.2 13 Sur 26 Sur 0 -- -- 33
2020-10-19 12:00:00 15.2 15 Sur 21 Sur 0 -- -- 39
2020-10-19 11:00:00 12.4 8 Sudeste 18 Este 0 -- -- 48
2020-10-19 10:00:00 8.8 6 Este 17 Este 0 -- -- 66
2020-10-19 09:00:00 6.1 4 Nordeste 12 Nordeste 0 -- -- 72
2020-10-19 08:00:00 4.7 4 Nordeste 13 Sudeste 0 -- -- 80
2020-10-19 07:00:00 8.2 8 Sudeste 15 Sudeste 0 -- -- 65
2020-10-19 06:00:00 5.7 3 Este 7 Sudeste 0 -- -- 81
2020-10-19 05:00:00 5.7 3 Nordeste 12 Sudeste 0 -- -- 81
2020-10-19 04:00:00 6.8 3 Noroeste 13 Este 0 -- -- 76
2020-10-19 03:00:00 7 5 Noroeste 9 Norte 0 -- -- 77
2020-10-19 02:00:00 7.2 5 Norte 8 Norte 0 -- -- 75
2020-10-19 01:00:00 7.7 5 Noroeste 10 Noroeste 0 -- -- 72
2020-10-19 00:00:00 10.1 2 Nordeste 22 Este 0 -- -- 61
2020-10-18 23:00:00 14.1 19 Este 22 Este 0 -- -- 47
2020-10-18 22:00:00 14.4 16 Este 20 Sudeste 0 -- -- 46
2020-10-18 21:00:00 14.8 11 Sudeste 14 Sudeste 0 -- -- 44
2020-10-18 20:00:00 15.9 6 Sudeste 8 Sudeste 0 -- -- 40
2020-10-18 19:00:00 18.9 5 Sur 12 Sur 0 -- -- 35
2020-10-18 18:00:00 19.3 4 Sur 12 Oeste 0 -- -- 33
2020-10-18 17:00:00 19.7 3 Este 13 Sudoeste 0 -- -- 32
2020-10-18 16:00:00 19.6 9 Sur 18 Sudeste 0 -- -- 32
2020-10-18 15:00:00 19.1 11 Sudeste 18 Sur 0 -- -- 34
2020-10-18 14:00:00 17 4 Sur 12 Sur 0 -- -- 43
2020-10-18 13:00:00 14.6 5 Oeste 9 Oeste 0 -- -- 51
2020-10-18 12:00:00 13.6 4 Noroeste 10 Sudoeste 0 -- -- 54
2020-10-18 11:00:00 9.6 3 Noroeste 6 Norte 0 -- -- 70
2020-10-18 10:00:00 5.5 3 Norte 6 Nordeste 0 -- -- 83
2020-10-18 09:00:00 3.3 5 Nordeste 12 Este 0 -- -- 87
2020-10-18 08:00:00 2.6 5 Nordeste 9 Norte 0 -- -- 88
2020-10-18 07:00:00 2.8 4 Nordeste 8 Este 0 -- -- 86
2020-10-18 06:00:00 3 6 Nordeste 8 Este 0 -- -- 87
2020-10-18 05:00:00 3.4 3 Noroeste 6 Noroeste 0 -- -- 85
2020-10-18 04:00:00 3.3 4 Nordeste 7 Norte 0 -- -- 81
2020-10-18 03:00:00 3.4 6 Norte 8 Norte 0 -- -- 82
2020-10-18 02:00:00 4.2 4 Norte 9 Nordeste 0 -- -- 79
2020-10-18 01:00:00 5.4 5 Norte 8 Norte 0 -- -- 71
2020-10-18 00:00:00 8.7 6 Norte 8 Norte 0 -- -- 61
2020-10-17 23:00:00 10.5 4 Sur 14 Sudeste 0 -- -- 55
2020-10-17 22:00:00 11 13 Sudeste 17 Sudeste 0 -- -- 54
2020-10-17 21:00:00 11.3 15 Sudeste 17 Sudeste 0 -- -- 53
2020-10-17 20:00:00 13.5 9 Sudeste 10 Sudeste 0 -- -- 47
2020-10-17 19:00:00 16.7 3 Sur 11 Sur 0 -- -- 40
2020-10-17 18:00:00 17.5 5 Sudoeste 15 Sudoeste 0 -- -- 37
2020-10-17 17:00:00 17.3 6 Sudoeste 14 Sudoeste 0 -- -- 38
2020-10-17 16:00:00 16.1 7 Sudoeste 15 Sudoeste 0 -- -- 39
2020-10-17 15:00:00 15.1 8 Oeste 21 Sudoeste 0 -- -- 42
2020-10-17 14:00:00 13.3 6 Oeste 14 Oeste 0 -- -- 47
2020-10-17 13:00:00 11.3 4 Oeste 9 Oeste 0 -- -- 51
2020-10-17 12:00:00 8.6 3 Sudoeste 5 Oeste 0 -- -- 58
2020-10-17 11:00:00 6 0 Calma 3 Este 0 -- -- 67
2020-10-17 10:00:00 2.6 2 Nordeste -- -- 0 -- -- 86
2020-10-17 09:00:00 1.1 2 Noroeste 5 Norte 0 -- -- 85
2020-10-17 08:00:00 1 3 Norte 4 Norte 0 -- -- 85
2020-10-17 07:00:00 1.4 2 Norte 3 Nordeste 0 -- -- 84
2020-10-17 06:00:00 1.4 2 Norte 4 Norte 0 -- -- 83
2020-10-17 05:00:00 1.2 3 Norte 6 Norte 0 -- -- 83
2020-10-17 04:00:00 1.3 5 Nordeste 6 Este 0 -- -- 81
2020-10-17 03:00:00 1.5 3 Nordeste -- -- 0 -- -- 79
2020-10-17 02:00:00 2.3 4 Norte 6 Noroeste 0 -- -- 76
2020-10-17 01:00:00 4.3 5 Norte 11 Sur 0 -- -- 65
2020-10-17 00:00:00 7.3 7 Sur 17 Sur 0 -- -- 52
2020-10-16 23:00:00 8.2 12 Sudeste 18 Sudeste 0 -- -- 51
2020-10-16 22:00:00 8.7 15 Sudeste 18 Sudeste 0 -- -- 48
2020-10-16 21:00:00 8.9 13 Sudeste 14 Sudeste 0 -- -- 48
2020-10-16 20:00:00 10.5 10 Sur 12 Sur 0 -- -- 46
2020-10-16 19:00:00 13.5 7 Sur 16 Sur 0 -- -- 39
2020-10-16 18:00:00 14.3 6 Sudoeste 19 Sudoeste 0 -- -- 36
2020-10-16 17:00:00 14.3 10 Oeste 23 Sudoeste 0 -- -- 34
2020-10-16 16:00:00 13.7 11 Sudoeste 20 Sudoeste 0 -- -- 38
2020-10-16 15:00:00 12.7 6 Sudoeste 18 Sudoeste 0 -- -- 40
2020-10-16 14:00:00 11.4 6 Sudoeste 18 Sudoeste 0 -- -- 45
2020-10-16 13:00:00 9.9 6 Sudoeste 14 Sudoeste 0 -- -- 53
2020-10-16 12:00:00 7.2 5 Oeste 10 Oeste 0 -- -- 63
2020-10-16 11:00:00 3.7 2 Noroeste 4 Oeste 0 -- -- 74
2020-10-16 10:00:00 0.6 2 Norte 9 Nordeste 0 -- -- 83
2020-10-16 09:00:00 -1.4 7 Nordeste 10 Nordeste 0 -- -- 87
2020-10-16 08:00:00 -1.6 4 Nordeste 5 Nordeste 0 -- -- 85
2020-10-16 07:00:00 -1.2 3 Este 11 Este 0 -- -- 87
2020-10-16 06:00:00 -0.8 3 Norte 6 Oeste 0 -- -- 84
2020-10-16 05:00:00 0.3 3 Norte 5 Sudeste 0 -- -- 77
2020-10-16 04:00:00 1.7 4 Nordeste 5 Nordeste 0 -- -- 76
2020-10-16 03:00:00 2 0 Calma 8 Sudeste 0 -- -- 76
2020-10-16 02:00:00 2.7 3 Oeste 6 Sudoeste 0 -- -- 74
2020-10-16 01:00:00 2.9 2 Este 10 Este 0 -- -- 70
2020-10-16 00:00:00 3.4 9 Nordeste 14 Nordeste 0 -- -- 70
2020-10-15 23:00:00 4.3 8 Este 11 Este 0 -- -- 66
2020-10-15 22:00:00 6.2 3 Nordeste 18 Este 0 -- -- 60
2020-10-15 21:00:00 7.5 13 Nordeste 24 Norte 0 -- -- 58
2020-10-15 20:00:00 9.3 18 Norte 28 Norte 0 -- -- 54
2020-10-15 19:00:00 11.6 17 Norte 37 Norte 0 -- -- 46
2020-10-15 18:00:00 13.6 20 Norte 34 Norte 0 -- -- 41
2020-10-15 17:00:00 13.7 19 Nordeste 36 Norte 0 -- -- 41
2020-10-15 16:00:00 14.2 20 Norte 30 Nordeste 0 -- -- 41
2020-10-15 15:00:00 14.2 15 Norte 33 Norte 0 -- -- 42
2020-10-15 14:00:00 13.6 19 Norte 33 Norte 0 -- -- 44
2020-10-15 13:00:00 13.2 14 Noroeste 27 Norte 0 -- -- 48
2020-10-15 12:00:00 11.5 14 Noroeste 22 Noroeste 0 -- -- 55
2020-10-15 11:00:00 9.3 11 Noroeste 19 Noroeste 0 -- -- 71
2020-10-15 10:00:00 6 9 Noroeste 14 Noroeste 0 -- -- 87
2020-10-15 09:00:00 4.4 0 Calma 9 Norte 0 -- -- 90
2020-10-15 08:00:00 3.7 9 Norte 11 Noroeste 0 -- -- 88
2020-10-15 07:00:00 4 6 Norte 11 Noroeste 0 -- -- 87
2020-10-15 06:00:00 4.3 9 Noroeste 12 Noroeste 0 -- -- 87
2020-10-15 05:00:00 4.1 8 Norte 11 Norte 0 -- -- 84
2020-10-15 04:00:00 4.7 6 Noroeste 11 Noroeste 0 -- -- 82
2020-10-15 03:00:00 4.7 6 Noroeste 9 Oeste 0 -- -- 81
2020-10-15 02:00:00 4.7 3 Sudoeste 6 Noroeste 0 -- -- 78
2020-10-15 01:00:00 5.5 6 Oeste 14 Noroeste 0 -- -- 74
2020-10-15 00:00:00 5.6 10 Norte 13 Norte 0 -- -- 70
2020-10-14 23:00:00 6.2 8 Norte 14 Norte 0 -- -- 66
2020-10-14 22:00:00 6.7 11 Norte 17 Noroeste 0 -- -- 62
2020-10-14 21:00:00 7.7 10 Norte 18 Norte 0 -- -- 57
2020-10-14 20:00:00 9.6 12 Norte 26 Norte 0 -- -- 52
2020-10-14 19:00:00 12.1 18 Norte 36 Norte 0 -- -- 41
2020-10-14 18:00:00 13.5 25 Norte 36 Nordeste 0 -- -- 40
2020-10-14 17:00:00 14.3 18 Norte 37 Norte 0 -- -- 37
2020-10-14 16:00:00 14.9 21 Norte 35 Norte 0 -- -- 38
2020-10-14 15:00:00 15.2 18 Norte 36 Noroeste 0 -- -- 39
2020-10-14 14:00:00 14.4 15 Noroeste 31 Noroeste 0 -- -- 44
2020-10-14 13:00:00 12.6 18 Noroeste 32 Noroeste 0 -- -- 50
2020-10-14 12:00:00 11.6 15 Noroeste 27 Noroeste 0 -- -- 57
2020-10-14 11:00:00 9.4 15 Noroeste 26 Noroeste 0 -- -- 71
2020-10-14 10:00:00 7.2 10 Noroeste 17 Norte 0 -- -- 80
2020-10-14 09:00:00 5.2 9 Norte 15 Norte 0 -- -- 86
2020-10-14 08:00:00 4.6 8 Noroeste 17 Noroeste 0 -- -- 86
2020-10-14 07:00:00 4.3 6 Norte 14 Norte 0 -- -- 84
2020-10-14 06:00:00 4.9 8 Noroeste 16 Noroeste 0 -- -- 82
2020-10-14 05:00:00 5.1 8 Norte 21 Noroeste 0 -- -- 79
2020-10-14 04:00:00 5.9 14 Noroeste 28 Noroeste 0 -- -- 77
2020-10-14 03:00:00 6.9 21 Noroeste 32 Noroeste 0 -- -- 73
2020-10-14 02:00:00 7.1 19 Noroeste 29 Noroeste 0 -- -- 75
2020-10-14 01:00:00 7.2 6 Oeste 12 Oeste 0 -- -- 74
2020-10-14 00:00:00 7.6 7 Noroeste 13 Nordeste 0 -- -- 68
2020-10-13 23:00:00 7.7 11 Norte 24 Norte 0 -- -- 72
2020-10-13 22:00:00 9.2 17 Norte 27 Norte 0 -- -- 66
2020-10-13 21:00:00 10.4 14 Norte 20 Norte 0 -- -- 61
2020-10-13 20:00:00 12.6 14 Noroeste 39 Noroeste 0 -- -- 54
2020-10-13 19:00:00 15.2 27 Noroeste 41 Noroeste 0 -- -- 48
2020-10-13 18:00:00 17.4 25 Noroeste 38 Noroeste 0 -- -- 42
2020-10-13 17:00:00 18.6 21 Noroeste 38 Noroeste 0 -- -- 38
2020-10-13 16:00:00 18.7 20 Noroeste 37 Noroeste 0 -- -- 39
2020-10-13 15:00:00 18.8 20 Noroeste 33 Oeste 0 -- -- 40
2020-10-13 14:00:00 18.2 13 Oeste 23 Noroeste 0 -- -- 43
2020-10-13 13:00:00 16.9 13 Noroeste 25 Noroeste 0 -- -- 49
2020-10-13 12:00:00 16.1 15 Norte 23 Noroeste 0 -- -- 52
2020-10-13 11:00:00 -- -- -- -- -- -- -- -- --
2020-10-13 10:00:00 -- -- -- -- -- -- -- -- --
2020-10-13 09:00:00 10.6 9 Oeste 18 Oeste 0 -- -- 90
2020-10-13 08:00:00 10.4 5 Norte 11 Nordeste 0 -- -- 89
2020-10-13 07:00:00 10.5 4 Norte 10 Noroeste 0 -- -- 87
2020-10-13 06:00:00 10.7 8 Noroeste 15 Noroeste 0 -- -- 85
2020-10-13 05:00:00 11.1 5 Noroeste 18 Oeste 0 -- -- 84
2020-10-13 04:00:00 -- -- -- -- -- -- -- -- --
2020-10-13 03:00:00 11.1 8 Noroeste 19 Oeste 0 -- -- 83
2020-10-13 02:00:00 11.5 9 Noroeste 21 Noroeste 0 -- -- 81
2020-10-13 01:00:00 -- -- -- -- -- -- -- -- --
2020-10-13 00:00:00 11.7 10 Noroeste 17 Noroeste 0 -- -- 80
2020-10-12 23:00:00 12.2 4 Noroeste 14 Noroeste 0 -- -- 75
2020-10-12 22:00:00 12.9 10 Noroeste 21 Noroeste 0 -- -- 72
2020-10-12 21:00:00 14 9 Noroeste 15 Oeste 0 -- -- 65
2020-10-12 20:00:00 16 10 Noroeste 20 Noroeste 0 -- -- 56
2020-10-12 19:00:00 18.6 13 Noroeste 23 Norte 0 -- -- 45
2020-10-12 18:00:00 18.5 14 Norte 27 Norte 0 -- -- 44
2020-10-12 17:00:00 19.4 8 Norte 28 Norte 0 -- -- 38
2020-10-12 16:00:00 18.8 6 Oeste 19 Oeste 0 -- -- 37
2020-10-12 15:00:00 17.1 6 Noroeste 21 Oeste 0 -- -- 39
2020-10-12 14:00:00 15.5 9 Sudoeste 19 Sudoeste 0 -- -- 38
2020-10-12 13:00:00 13.5 9 Sudoeste 17 Sudoeste 0 -- -- 46
2020-10-12 12:00:00 11 2 Sudoeste 8 Oeste 0 -- -- 55
2020-10-12 11:00:00 8.2 3 Norte 6 Oeste 0 -- -- 65
2020-10-12 10:00:00 5.2 3 Oeste 8 Este 0 -- -- 77
2020-10-12 09:00:00 3.8 6 Este 7 Este 0 -- -- 82
2020-10-12 08:00:00 3.7 0 Calma 4 Sur 0 -- -- 82
2020-10-12 07:00:00 3.6 3 Sur 5 Sudeste 0 -- -- 79
2020-10-12 06:00:00 3.9 0 Calma 9 Oeste 0 -- -- 80
2020-10-12 05:00:00 4.1 5 Sudoeste 10 Norte 0 -- -- 80
2020-10-12 04:00:00 -- -- -- -- -- -- -- -- --
2020-10-12 03:00:00 4.4 4 Sudeste 13 Noroeste 0 -- -- 78
2020-10-12 02:00:00 5.1 6 Norte 13 Norte 0 -- -- 75
2020-10-12 01:00:00 5.9 6 Nordeste 14 Noroeste 0 -- -- 71
2020-10-12 00:00:00 6.5 4 Norte 21 Norte 0 -- -- 68
2020-10-11 23:00:00 7.8 14 Norte 30 Nordeste 0 -- -- 63
2020-10-11 22:00:00 8 9 Noroeste 24 Norte 0 -- -- 62
2020-10-11 21:00:00 -- -- -- -- -- -- -- -- --
2020-10-11 20:00:00 -- -- -- -- -- -- -- -- --
2020-10-11 19:00:00 12.1 27 Norte 49 Norte 0 -- -- 47
2020-10-11 18:00:00 13.5 30 Norte 41 Norte 0 -- -- 42
2020-10-11 17:00:00 15.2 23 Norte 39 Norte 0 -- -- 39
2020-10-11 16:00:00 15.6 18 Norte 33 Norte 0 -- -- 36
2020-10-11 15:00:00 15.3 14 Norte 41 Norte 0 -- -- 38
2020-10-11 14:00:00 14.6 20 Norte 27 Norte 0 -- -- 40
2020-10-11 13:00:00 13.6 14 Norte 26 Nordeste 0 -- -- 44
2020-10-11 12:00:00 11.7 8 Norte 15 Norte 0 -- -- 51
2020-10-11 11:00:00 8.9 4 Noroeste 8 Noroeste 0 -- -- 68
2020-10-11 10:00:00 5.4 2 Nordeste 5 Nordeste 0 -- -- 86
2020-10-11 09:00:00 2.4 3 Norte 5 Norte 0 -- -- 87
2020-10-11 08:00:00 3 3 Norte 8 Nordeste 0 -- -- 84
2020-10-11 07:00:00 4.7 3 Norte 5 Nordeste 0 -- -- 82
2020-10-11 06:00:00 4.8 0 Calma 0 Calma 0 -- -- 82
2020-10-11 05:00:00 5.6 0 Calma 0 Calma 0 -- -- 78
2020-10-11 04:00:00 6.7 0 Calma -- -- 0 -- -- 75
2020-10-11 03:00:00 6.7 0 Calma 0 Calma 0 -- -- 74
2020-10-11 02:00:00 6.9 0 Calma 11 Este 0 -- -- 73
2020-10-11 01:00:00 7.6 10 Este 14 Este 0 -- -- 71
2020-10-11 00:00:00 8.4 9 Este 14 Nordeste 0 -- -- 67
2020-10-10 23:00:00 9.9 12 Norte 17 Norte 0 -- -- 64
2020-10-10 22:00:00 10.9 12 Norte 28 Nordeste 0 -- -- 61
2020-10-10 21:00:00 11.9 14 Norte 28 Nordeste 0 -- -- 56
2020-10-10 20:00:00 12.8 21 Nordeste 38 Nordeste 0 -- -- 51
2020-10-10 19:00:00 15 24 Norte 34 Norte 0 -- -- 47
2020-10-10 18:00:00 17.4 22 Norte 33 Norte 0 -- -- 44
2020-10-10 17:00:00 18.8 18 Norte 28 Norte 0 -- -- 42
2020-10-10 16:00:00 19.4 12 Norte 27 Norte 0 -- -- 40
2020-10-10 15:00:00 19.2 15 Norte 27 Norte 0 -- -- 42
2020-10-10 14:00:00 18.3 14 Nordeste 25 Nordeste 0 -- -- 48
2020-10-10 13:00:00 17.1 13 Nordeste 20 Nordeste 0 -- -- 55
2020-10-10 12:00:00 15.4 7 Norte 13 Norte 0 -- -- 63
2020-10-10 11:00:00 14.1 2 Nordeste 6 Nordeste 0 -- -- 72
2020-10-10 10:00:00 11 0 Calma 4 Norte 0 -- -- 87
2020-10-10 09:00:00 9.1 4 Norte 4 Norte 0 -- -- 89
2020-10-10 08:00:00 9.1 0 Calma 5 Noroeste 0 -- -- 89
2020-10-10 07:00:00 9 2 Noroeste 5 Norte 0 -- -- 90
2020-10-10 06:00:00 8.6 2 Nordeste 8 Este 0 -- -- 90
2020-10-10 05:00:00 8.7 3 Norte 8 Nordeste 0 -- -- 89
2020-10-10 04:00:00 9.1 4 Norte 17 Este 0 -- -- 85
2020-10-10 03:00:00 10.3 9 Este 14 Este 0 -- -- 87
2020-10-10 02:00:00 10.7 12 Este 15 Este 0 -- -- 86
2020-10-10 01:00:00 10.9 9 Este 15 Nordeste 0 -- -- 83
2020-10-10 00:00:00 12.4 12 Nordeste 15 Nordeste 0 -- -- 81
2020-10-09 23:00:00 13.7 12 Nordeste 24 Nordeste 0 -- -- 73
2020-10-09 22:00:00 14.7 15 Norte 19 Norte 0 -- -- 68
2020-10-09 21:00:00 16.6 9 Norte 13 Noroeste 0 -- -- 50
2020-10-09 20:00:00 19.4 4 Norte 13 Noroeste 0 -- -- 42
2020-10-09 19:00:00 23.1 5 Noroeste 15 Noroeste 0 -- -- 34
2020-10-09 18:00:00 23.8 9 Noroeste 15 Noroeste 0 -- -- 31
2020-10-09 17:00:00 24.2 6 Noroeste 19 Noroeste 0 -- -- 29
2020-10-09 16:00:00 23.4 7 Noroeste 24 Noroeste 0 -- -- 29
2020-10-09 15:00:00 22.4 10 Noroeste 21 Oeste 0 -- -- 35
2020-10-09 14:00:00 20.8 9 Noroeste 20 Noroeste 0 -- -- 41
2020-10-09 13:00:00 18.6 3 Noroeste 10 Norte 0 -- -- 58
2020-10-09 12:00:00 16.1 5 Noroeste 11 Noroeste 0 -- -- 65
2020-10-09 11:00:00 13.4 2 Noroeste 5 Norte 0 -- -- 75
2020-10-09 10:00:00 9.6 3 Norte 7 Nordeste 0 -- -- 89
2020-10-09 09:00:00 7.5 7 Nordeste 11 Nordeste 0 -- -- 91
2020-10-09 08:00:00 6.4 8 Nordeste 9 Nordeste 0 -- -- 90
2020-10-09 07:00:00 7.1 7 Este 10 Nordeste 0 -- -- 90
2020-10-09 06:00:00 7.1 5 Norte 10 Este 0 -- -- 87
2020-10-09 05:00:00 8.1 5 Nordeste 7 Nordeste 0 -- -- 86
2020-10-09 04:00:00 9.2 4 Nordeste 5 Norte 0 -- -- 87
2020-10-09 03:00:00 10 5 Norte 12 Nordeste 0 -- -- 83
2020-10-09 02:00:00 10.6 6 Nordeste 8 Nordeste 0 -- -- 83
2020-10-09 01:00:00 12.3 3 Sur 8 Noroeste 0 -- -- 74
2020-10-09 00:00:00 14.1 5 Noroeste 10 Sur 0 -- -- 68
2020-10-08 23:00:00 17.2 8 Sur 9 Sur 0 -- -- 50
2020-10-08 22:00:00 17.6 7 Sur 9 Sudeste 0 -- -- 52
2020-10-08 21:00:00 18.5 8 Sudeste 9 Sudeste 0 -- -- 49
2020-10-08 20:00:00 20 5 Sur 8 Sur 0 -- -- 44
2020-10-08 19:00:00 21.9 2 Este 13 Sur 0 -- -- 40
2020-10-08 18:00:00 23.5 9 Oeste 20 Sudoeste 0 -- -- 37
2020-10-08 17:00:00 23.3 6 Sudoeste 24 Oeste 0 -- -- 36
2020-10-08 16:00:00 22.3 9 Sudoeste 17 Sudoeste 0 -- -- 43
2020-10-08 15:00:00 21.1 12 Sudoeste 20 Sudoeste 0 -- -- 51
2020-10-08 14:00:00 19.4 4 Oeste 9 Oeste 0 -- -- 60
2020-10-08 13:00:00 19.2 2 Noroeste 11 Sur 0 -- -- 60
2020-10-08 12:00:00 16.3 2 Norte 7 Norte 0 -- -- 73
2020-10-08 11:00:00 13.4 4 Norte 8 Nordeste 0 -- -- 84
2020-10-08 10:00:00 10.7 4 Norte 6 Norte 0 -- -- 91
2020-10-08 09:00:00 7.8 4 Norte 8 Nordeste 0 -- -- 92
2020-10-08 08:00:00 8 6 Nordeste 10 Nordeste 0 -- -- 92
2020-10-08 07:00:00 8.2 5 Nordeste 8 Norte 0 -- -- 91
2020-10-08 06:00:00 8.2 5 Norte 9 Norte 0 -- -- 90
2020-10-08 05:00:00 8.8 6 Noroeste 10 Norte 0 -- -- 89
2020-10-08 04:00:00 9.4 5 Norte 9 Norte 0 -- -- 86
2020-10-08 03:00:00 11.6 5 Norte 19 Este 0 -- -- 79
2020-10-08 02:00:00 13.8 12 Este 34 Este 0 -- -- 79
2020-10-08 01:00:00 14.5 24 Este 32 Este 0 -- -- 76
2020-10-08 00:00:00 15.9 4 Nordeste -- -- 0 -- -- 58
2020-10-07 23:00:00 15 4 Norte 10 Sudeste 0 -- -- 64
2020-10-07 22:00:00 17.5 8 Sudeste 14 Sudeste 0 -- -- 52
2020-10-07 21:00:00 18.5 8 Sudeste 10 Este 0 -- -- 49
2020-10-07 20:00:00 20.3 9 Este 10 Este 0 -- -- 45
2020-10-07 19:00:00 23.7 0 Calma 6 Noroeste 0 -- -- 37
2020-10-07 18:00:00 23.9 4 Oeste 13 Sudoeste 0 -- -- 38
2020-10-07 17:00:00 23.9 9 Oeste 19 Sudoeste 0 -- -- 37
2020-10-07 16:00:00 23.6 4 Oeste 18 Sudoeste 0 -- -- 40
2020-10-07 15:00:00 22.9 8 Oeste 15 Sudoeste 0 -- -- 44
2020-10-07 14:00:00 21.7 8 Sudoeste 15 Sudoeste 0 -- -- 47
2020-10-07 13:00:00 20.3 6 Norte 15 Oeste 0 -- -- 55
2020-10-07 12:00:00 18.4 12 Noroeste 18 Noroeste 0 -- -- 67
2020-10-07 11:00:00 15.7 12 Noroeste 21 Noroeste 0 -- -- 79
2020-10-07 10:00:00 13.8 5 Norte 11 Norte 0 -- -- 86
2020-10-07 09:00:00 11.7 4 Oeste 13 Noroeste 0 -- -- 89
2020-10-07 08:00:00 11.5 8 Oeste 16 Noroeste 0 -- -- 88
2020-10-07 07:00:00 11.7 12 Noroeste 22 Noroeste 0 -- -- 85
2020-10-07 06:00:00 11.9 4 Noroeste 15 Oeste 0 -- -- 84
2020-10-07 05:00:00 11.4 4 Sur 11 Noroeste 0 -- -- 82
2020-10-07 04:00:00 11.9 4 Noroeste 13 Noroeste 0 -- -- 80
2020-10-07 03:00:00 12.5 12 Noroeste 21 Noroeste 0 -- -- 77
2020-10-07 02:00:00 12.9 6 Sudoeste 15 Oeste 0 -- -- 74
2020-10-07 01:00:00 13.5 10 Oeste 20 Oeste 0 -- -- 73
2020-10-07 00:00:00 14 14 Noroeste 29 Oeste 0 -- -- 72
2020-10-06 23:00:00 14.3 12 Oeste 20 Oeste 0 -- -- 68
2020-10-06 22:00:00 15.5 14 Noroeste 28 Oeste 0 -- -- 62
2020-10-06 21:00:00 15.9 15 Noroeste 25 Noroeste 0 -- -- 60
2020-10-06 20:00:00 17.3 20 Noroeste 32 Oeste 0 -- -- 56
2020-10-06 19:00:00 18.9 13 Noroeste 38 Noroeste 0 -- -- 51
2020-10-06 18:00:00 20 25 Noroeste 38 Noroeste 0 -- -- 46
2020-10-06 17:00:00 21.5 27 Noroeste 39 Noroeste 0 -- -- 46
2020-10-06 16:00:00 21.5 20 Noroeste 35 Noroeste 0 -- -- 50
2020-10-06 15:00:00 21 19 Noroeste 39 Oeste 0 -- -- 56
2020-10-06 14:00:00 20 27 Noroeste 41 Oeste 0 -- -- 58
2020-10-06 13:00:00 18.5 12 Noroeste 24 Oeste 0 -- -- 69
2020-10-06 12:00:00 17.3 13 Sudoeste 27 Sudoeste 0 -- -- 73
2020-10-06 11:00:00 15.2 17 Sudoeste 25 Sudoeste 0 -- -- 82
2020-10-06 10:00:00 13.4 17 Sudoeste 25 Sudoeste 0 -- -- 90
2020-10-06 09:00:00 11.2 12 Sudoeste 20 Sudoeste 0 -- -- 92
2020-10-06 08:00:00 10.9 7 Sudoeste 17 Sudoeste 0 -- -- 91
2020-10-06 07:00:00 10.9 12 Sudoeste 23 Sudoeste 0 -- -- 92
2020-10-06 06:00:00 11 14 Sudoeste 21 Sudoeste 0 -- -- 90
2020-10-06 05:00:00 11.2 10 Sudoeste 23 Sudoeste 0 -- -- 89
2020-10-06 04:00:00 11.6 17 Sudoeste 31 Sudoeste 0 -- -- 88
2020-10-06 03:00:00 12.3 12 Sudoeste 30 Sudoeste 0 -- -- 85
2020-10-06 02:00:00 12.9 19 Sudoeste 25 Sudoeste 0 -- -- 83
2020-10-06 01:00:00 13.2 12 Sudoeste 21 Sudoeste 0 -- -- 79
2020-10-06 00:00:00 13.8 12 Sudoeste 19 Sudoeste 0 -- -- 77
2020-10-05 23:00:00 14.2 12 Sudoeste 16 Sudoeste 0 -- -- 73
2020-10-05 22:00:00 14.5 5 Sudoeste 10 Norte 0 -- -- 68
2020-10-05 21:00:00 14.6 10 Noroeste 19 Noroeste 0 -- -- 68
2020-10-05 20:00:00 15.6 12 Noroeste 31 Noroeste 0 -- -- 61
2020-10-05 19:00:00 16.5 23 Noroeste 39 Noroeste 0 -- -- 53
2020-10-05 18:00:00 17.8 24 Noroeste 44 Noroeste 0 -- -- 43
2020-10-05 17:00:00 17.9 24 Noroeste 39 Oeste 0 -- -- 44
2020-10-05 16:00:00 17.7 24 Noroeste 42 Oeste 0 -- -- 41
2020-10-05 15:00:00 16.8 18 Oeste 32 Oeste 0 -- -- 41
2020-10-05 14:00:00 15.8 17 Oeste 35 Oeste 0 -- -- 44
2020-10-05 13:00:00 14.2 22 Oeste 37 Oeste 0 -- -- 47
2020-10-05 12:00:00 12.9 18 Noroeste 34 Oeste 0 -- -- 49
2020-10-05 11:00:00 11.5 19 Oeste 32 Oeste 0 -- -- 58
2020-10-05 10:00:00 8.2 10 Sudoeste 17 Sudoeste 0 -- -- 77
2020-10-05 09:00:00 6.3 10 Sudoeste 21 Sudoeste 0 -- -- 82
2020-10-05 08:00:00 6.8 15 Sudoeste 22 Sudoeste 0 -- -- 79
2020-10-05 07:00:00 7.7 12 Oeste 28 Oeste 0 -- -- 74
2020-10-05 06:00:00 7 12 Sudoeste 19 Sudoeste 0 -- -- 77
2020-10-05 05:00:00 8.9 14 Oeste 30 Oeste 0 -- -- 67
2020-10-05 04:00:00 8.9 18 Oeste 27 Oeste 0 -- -- 68
2020-10-05 03:00:00 9.4 19 Oeste 30 Oeste 0 -- -- 65
2020-10-05 02:00:00 9.2 16 Noroeste 30 Oeste 0 -- -- 68
2020-10-05 01:00:00 9.1 14 Oeste 38 Oeste 0 -- -- 69
2020-10-05 00:00:00 8.6 14 Oeste 37 Oeste 0 -- -- 78
2020-10-04 23:00:00 10.1 18 Oeste 39 Noroeste 0 -- -- 64
2020-10-04 22:00:00 10.7 23 Oeste 49 Oeste 0 -- -- 64
2020-10-04 21:00:00 10.8 22 Oeste 35 Noroeste 0 -- -- 65
2020-10-04 20:00:00 10.8 18 Noroeste 31 Noroeste 0 -- -- 64
2020-10-04 19:00:00 11.7 17 Noroeste 46 Oeste 0 -- -- 62
2020-10-04 18:00:00 12.8 27 Noroeste 50 Oeste 0 -- -- 56
2020-10-04 17:00:00 13 33 Oeste 56 Noroeste 0 -- -- 53
2020-10-04 16:00:00 15.1 30 Oeste 57 Oeste 0 -- -- 42
2020-10-04 15:00:00 14.1 31 Oeste 59 Oeste 0 -- -- 49
2020-10-04 14:00:00 13.3 39 Noroeste 62 Oeste 0 -- -- 51
2020-10-04 13:00:00 13.5 37 Oeste 53 Oeste 0 -- -- 50
2020-10-04 12:00:00 12.2 27 Noroeste 60 Noroeste 0.2 -- -- 56
2020-10-04 11:00:00 11.7 27 Oeste 44 Oeste 0 -- -- 58
2020-10-04 10:00:00 10.2 20 Oeste 37 Oeste 0 -- -- 66
2020-10-04 09:00:00 9.6 21 Oeste 41 Oeste 0 -- -- 71
2020-10-04 08:00:00 9.2 17 Oeste 30 Sudoeste 0 -- -- 85
2020-10-04 07:00:00 9.1 20 Sudoeste 35 Sudoeste 0 -- -- 84
2020-10-04 06:00:00 8.9 22 Sudoeste 32 Sudoeste 0 -- -- 82
2020-10-04 05:00:00 8.8 21 Sudoeste 36 Sudoeste 0 -- -- 82
2020-10-04 04:00:00 8.1 14 Sudoeste 25 Sudoeste 0 -- -- 82
2020-10-04 03:00:00 7.4 14 Sudoeste 22 Sudoeste 0 -- -- 83
2020-10-04 02:00:00 7.8 20 Sudoeste 30 Oeste 0 -- -- 82
2020-10-04 01:00:00 8.2 13 Sudoeste 29 Oeste 0 -- -- 81
2020-10-04 00:00:00 8.8 14 Oeste 22 Oeste 0 -- -- 77
2020-10-03 23:00:00 9.5 14 Sudoeste 20 Sudoeste 0 -- -- 76
2020-10-03 22:00:00 9.2 7 Sudoeste 13 Oeste 0 -- -- 80
2020-10-03 21:00:00 9.8 12 Oeste 27 Oeste 0 -- -- 74
2020-10-03 20:00:00 11 16 Oeste 32 Oeste 0 -- -- 60
2020-10-03 19:00:00 12.1 17 Noroeste 41 Oeste 0 -- -- 55
2020-10-03 18:00:00 13.1 29 Oeste 50 Oeste 0 -- -- 47
2020-10-03 17:00:00 13.9 36 Oeste 57 Oeste 0 -- -- 44
2020-10-03 16:00:00 13.9 33 Oeste 51 Oeste 0 -- -- 47
2020-10-03 15:00:00 12.5 31 Oeste 47 Oeste 0 -- -- 52
2020-10-03 14:00:00 11.9 22 Oeste 47 Oeste 0 -- -- 52
2020-10-03 13:00:00 11.4 29 Noroeste 51 Noroeste 0 -- -- 51
2020-10-03 12:00:00 10.9 31 Oeste 48 Oeste 0 -- -- 53
2020-10-03 11:00:00 9.8 26 Noroeste 44 Oeste 0 -- -- 59
2020-10-03 10:00:00 7.8 16 Oeste 26 Oeste 0 -- -- 69
2020-10-03 09:00:00 5.5 14 Oeste 27 Oeste 0 -- -- 76
2020-10-03 08:00:00 5 15 Oeste 29 Oeste 0 -- -- 75
2020-10-03 07:00:00 5.4 16 Oeste 27 Oeste 0 -- -- 77
2020-10-03 06:00:00 5.3 15 Oeste 28 Oeste 0 -- -- 78
2020-10-03 05:00:00 5.3 17 Oeste 33 Oeste 0 -- -- 77
2020-10-03 04:00:00 5.7 20 Oeste 33 Oeste 0 -- -- 76
2020-10-03 03:00:00 5.9 17 Oeste 33 Oeste 0 -- -- 74
2020-10-03 02:00:00 6.5 22 Oeste 33 Oeste 0 -- -- 71
2020-10-03 01:00:00 6.8 18 Oeste 39 Oeste 0 -- -- 71
2020-10-03 00:00:00 7 21 Oeste 35 Oeste 0 -- -- 74
2020-10-02 23:00:00 7.3 23 Oeste 31 Oeste 0 -- -- 72
2020-10-02 22:00:00 7.1 23 Oeste 36 Oeste 0 -- -- 70
2020-10-02 21:00:00 7 26 Oeste 34 Oeste 0 -- -- 70
2020-10-02 20:00:00 7.6 15 Oeste 46 Oeste 0 -- -- 67
2020-10-02 19:00:00 9.3 26 Oeste 52 Noroeste 0 -- -- 60
2020-10-02 18:00:00 9.6 31 Noroeste 54 Noroeste 0 -- -- 56
2020-10-02 17:00:00 10.9 35 Noroeste 61 Noroeste 0 -- -- 52
2020-10-02 16:00:00 10.7 36 Oeste 66 Oeste 0 -- -- 51
2020-10-02 15:00:00 10.9 34 Noroeste 64 Oeste 0 -- -- 52
2020-10-02 14:00:00 10.5 36 Oeste 62 Noroeste 0 -- -- 54
2020-10-02 13:00:00 9.3 40 Noroeste 58 Oeste 0 -- -- 57
2020-10-02 12:00:00 9.1 37 Noroeste 58 Noroeste 0 -- -- 58
2020-10-02 11:00:00 8.2 35 Noroeste 80 Noroeste 0 -- -- 62
2020-10-02 10:00:00 8.5 33 Noroeste 63 Noroeste 0 -- -- 67
2020-10-02 09:00:00 8.9 26 Oeste 54 Oeste 0 -- -- 79
2020-10-02 08:00:00 9.9 25 Oeste 62 Oeste 0.4 -- -- 81
2020-10-02 07:00:00 11.9 14 Noroeste 35 Oeste 0 -- -- 81
2020-10-02 06:00:00 12.4 19 Sudoeste 45 Sudoeste 0.2 -- -- 85
2020-10-02 05:00:00 12.3 27 Sudoeste 47 Sudoeste 1.8 -- -- 90
2020-10-02 04:00:00 11.7 34 Sudoeste 57 Sudoeste 0 -- -- 86
2020-10-02 03:00:00 11.4 39 Sudoeste 62 Sudoeste 0 -- -- 83
2020-10-02 02:00:00 11.9 42 Sudoeste 65 Sudoeste 0 -- -- 77
2020-10-02 01:00:00 11.9 42 Sudoeste 62 Sudoeste 0 -- -- 74
2020-10-02 00:00:00 12.3 39 Sudoeste 63 Sudoeste 0 -- -- 70
2020-10-01 23:00:00 13 33 Sudoeste 50 Sudoeste 0 -- -- 66
2020-10-01 22:00:00 13.7 33 Sudoeste 54 Sudoeste 0 -- -- 64
2020-10-01 21:00:00 14.4 22 Sudoeste 43 Sudoeste 0 -- -- 58
2020-10-01 20:00:00 14.5 10 Oeste 22 Oeste 0 -- -- 56
2020-10-01 19:00:00 15.6 12 Noroeste 31 Oeste 0 -- -- 50
2020-10-01 18:00:00 16.9 21 Noroeste 30 Noroeste 0 -- -- 45
2020-10-01 17:00:00 18 13 Noroeste 26 Noroeste 0 -- -- 43
2020-10-01 16:00:00 18.4 14 Noroeste 28 Noroeste 0 -- -- 42
2020-10-01 15:00:00 17.5 15 Noroeste 29 Oeste 0 -- -- 44
2020-10-01 14:00:00 16.5 17 Oeste 33 Oeste 0 -- -- 47
2020-10-01 13:00:00 15.5 19 Oeste 31 Oeste 0 -- -- 55
2020-10-01 12:00:00 13.6 18 Oeste 29 Oeste 0 -- -- 63
2020-10-01 11:00:00 13.3 16 Oeste 35 Noroeste 0 -- -- 69
2020-10-01 10:00:00 11.3 9 Oeste 14 Oeste 0 -- -- 82
2020-10-01 09:00:00 9.9 10 Sur 14 Sudoeste 0 -- -- 83
2020-10-01 08:00:00 9.9 9 Sudoeste 12 Sudoeste 0 -- -- 82
2020-10-01 07:00:00 10.7 4 Sudoeste 10 Sudoeste 0 -- -- 79
2020-10-01 06:00:00 11.4 6 Oeste 9 Noroeste 0 -- -- 80
2020-10-01 05:00:00 11.5 6 Norte 12 Noroeste 0 -- -- 76
2020-10-01 04:00:00 11.4 7 Oeste 11 Oeste 0 -- -- 75
2020-10-01 03:00:00 11.5 4 Sudoeste 9 Sur 0 -- -- 74
2020-10-01 02:00:00 12 5 Oeste 13 Noroeste 0 -- -- 71
2020-10-01 01:00:00 13 6 Noroeste 13 Noroeste 0 -- -- 60
2020-10-01 00:00:00 13.6 6 Oeste 12 Oeste 0 -- -- 58